sensor_id;sensor_type;location;lat;lon;timestamp;pressure;altitude;pressure_sealevel;temperature;humidity
59487;BME280;45298;54.918;73.504;2023-03-22T00:00:12;100628.63;;;-5.43;71.20
59487;BME280;45298;54.918;73.504;2023-03-22T00:02:42;100552.19;;;-5.90;71.20
59487;BME280;45298;54.918;73.504;2023-03-22T00:05:11;100636.41;;;-5.39;71.93
59487;BME280;45298;54.918;73.504;2023-03-22T00:07:40;100608.78;;;-5.44;71.96
59487;BME280;45298;54.918;73.504;2023-03-22T00:10:09;100626.13;;;-5.34;71.31
59487;BME280;45298;54.918;73.504;2023-03-22T00:12:38;100636.59;;;-5.25;71.26
59487;BME280;45298;54.918;73.504;2023-03-22T00:15:07;100656.50;;;-5.18;71.43
59487;BME280;45298;54.918;73.504;2023-03-22T00:17:38;100649.63;;;-5.16;72.07
59487;BME280;45298;54.918;73.504;2023-03-22T00:20:19;100610.56;;;-5.37;71.70
59487;BME280;45298;54.918;73.504;2023-03-22T00:22:48;100543.00;;;-5.70;70.98
59487;BME280;45298;54.918;73.504;2023-03-22T00:25:17;100663.53;;;-5.07;71.45
59487;BME280;45298;54.918;73.504;2023-03-22T00:27:46;100648.81;;;-5.10;71.57
59487;BME280;45298;54.918;73.504;2023-03-22T00:30:15;100633.28;;;-5.13;71.95
59487;BME280;45298;54.918;73.504;2023-03-22T00:32:44;100549.94;;;-5.64;71.35
59487;BME280;45298;54.918;73.504;2023-03-22T00:35:13;100623.72;;;-5.19;71.67
59487;BME280;45298;54.918;73.504;2023-03-22T00:37:41;100639.38;;;-5.09;70.97
59487;BME280;45298;54.918;73.504;2023-03-22T00:40:11;100605.53;;;-5.26;71.34
59487;BME280;45298;54.918;73.504;2023-03-22T00:42:41;100641.19;;;-5.02;71.62
59487;BME280;45298;54.918;73.504;2023-03-22T00:45:11;100617.78;;;-5.13;71.56
59487;BME280;45298;54.918;73.504;2023-03-22T00:47:41;100614.25;;;-5.17;71.29
59487;BME280;45298;54.918;73.504;2023-03-22T00:50:09;100604.75;;;-5.21;71.37
59487;BME280;45298;54.918;73.504;2023-03-22T00:52:38;100606.53;;;-5.13;70.89
59487;BME280;45298;54.918;73.504;2023-03-22T00:55:07;100616.03;;;-5.12;71.38
59487;BME280;45298;54.918;73.504;2023-03-22T00:57:36;100632.50;;;-5.07;70.79
59487;BME280;45298;54.918;73.504;2023-03-22T01:00:10;100625.66;;;-5.02;70.94
59487;BME280;45298;54.918;73.504;2023-03-22T01:02:42;100609.19;;;-5.09;71.57
59487;BME280;45298;54.918;73.504;2023-03-22T01:05:15;100606.59;;;-5.10;71.28
59487;BME280;45298;54.918;73.504;2023-03-22T01:07:46;100598.81;;;-5.09;71.60
59487;BME280;45298;54.918;73.504;2023-03-22T01:10:17;100597.97;;;-5.09;71.68
59487;BME280;45298;54.918;73.504;2023-03-22T01:12:46;100591.06;;;-5.10;71.14
59487;BME280;45298;54.918;73.504;2023-03-22T01:15:15;100638.81;;;-4.80;71.72
59487;BME280;45298;54.918;73.504;2023-03-22T01:17:47;100564.22;;;-5.22;71.55
59487;BME280;45298;54.918;73.504;2023-03-22T01:20:19;100598.97;;;-4.95;70.85
59487;BME280;45298;54.918;73.504;2023-03-22T01:22:48;100644.06;;;-4.74;71.19
59487;BME280;45298;54.918;73.504;2023-03-22T01:25:17;100638.06;;;-4.70;71.52
59487;BME280;45298;54.918;73.504;2023-03-22T01:27:46;100638.94;;;-4.68;70.88
59487;BME280;45298;54.918;73.504;2023-03-22T01:30:15;100606.91;;;-4.81;70.64
59487;BME280;45298;54.918;73.504;2023-03-22T01:32:44;100548.78;;;-5.14;70.47
59487;BME280;45298;54.918;73.504;2023-03-22T01:35:13;100622.56;;;-4.65;70.97
59487;BME280;45298;54.918;73.504;2023-03-22T01:37:43;100594.84;;;-4.77;70.86
59487;BME280;45298;54.918;73.504;2023-03-22T01:40:13;100548.06;;;-5.02;70.24
59487;BME280;45298;54.918;73.504;2023-03-22T01:42:43;100638.34;;;-4.41;70.75
59487;BME280;45298;54.918;73.504;2023-03-22T01:45:35;100630.63;;;-4.34;70.42
59487;BME280;45298;54.918;73.504;2023-03-22T01:48:27;100612.41;;;-4.44;70.22
59487;BME280;45298;54.918;73.504;2023-03-22T01:51:16;100533.56;;;-4.84;70.13
59487;BME280;45298;54.918;73.504;2023-03-22T01:54:12;100621.16;;;-4.29;69.98
59487;BME280;45298;54.918;73.504;2023-03-22T01:56:43;100618.63;;;-4.25;69.52
59487;BME280;45298;54.918;73.504;2023-03-22T01:59:21;100593.50;;;-4.35;69.40
59487;BME280;45298;54.918;73.504;2023-03-22T02:02:28;100630.84;;;-4.08;69.29
59487;BME280;45298;54.918;73.504;2023-03-22T02:05:09;100615.25;;;-4.14;69.05
59487;BME280;45298;54.918;73.504;2023-03-22T02:07:41;100533.78;;;-4.53;69.21
59487;BME280;45298;54.918;73.504;2023-03-22T02:10:23;100604.91;;;-4.10;68.98
59487;BME280;45298;54.918;73.504;2023-03-22T02:13:32;100631.00;;;-3.86;68.71
59487;BME280;45298;54.918;73.504;2023-03-22T02:30:23;100634.66;;;-3.49;67.82
59487;BME280;45298;54.918;73.504;2023-03-22T02:36:16;100633.00;;;-3.37;68.24
59487;BME280;45298;54.918;73.504;2023-03-22T02:38:59;100633.84;;;-3.41;67.73
59487;BME280;45298;54.918;73.504;2023-03-22T02:50:28;100531.69;;;-3.77;66.52
59487;BME280;45298;54.918;73.504;2023-03-22T02:55:57;100614.13;;;-2.91;66.04
59487;BME280;45298;54.918;73.504;2023-03-22T02:58:33;100621.06;;;-2.78;65.16
59487;BME280;45298;54.918;73.504;2023-03-22T03:01:12;100616.75;;;-2.72;65.89
59487;BME280;45298;54.918;73.504;2023-03-22T03:03:46;100622.84;;;-2.67;65.59
59487;BME280;45298;54.918;73.504;2023-03-22T03:06:19;100592.50;;;-2.75;65.74
59487;BME280;45298;54.918;73.504;2023-03-22T03:08:49;100602.06;;;-2.53;65.75
59487;BME280;45298;54.918;73.504;2023-03-22T03:11:19;100616.81;;;-2.40;65.72
59487;BME280;45298;54.918;73.504;2023-03-22T03:13:49;100603.81;;;-2.37;65.79
59487;BME280;45298;54.918;73.504;2023-03-22T03:16:24;100630.63;;;-2.05;64.62
59487;BME280;45298;54.918;73.504;2023-03-22T03:22:06;100641.03;;;-1.79;64.25
59487;BME280;45298;54.918;73.504;2023-03-22T03:34:02;100643.41;;;-1.11;62.80
59487;BME280;45298;54.918;73.504;2023-03-22T03:36:35;100633.88;;;-1.09;62.89
59487;BME280;45298;54.918;73.504;2023-03-22T03:39:09;100665.84;;;-0.80;62.49
59487;BME280;45298;54.918;73.504;2023-03-22T03:41:41;100631.19;;;-0.92;63.10
59487;BME280;45298;54.918;73.504;2023-03-22T03:44:12;100631.19;;;-0.93;62.45
59487;BME280;45298;54.918;73.504;2023-03-22T03:46:45;100644.19;;;-0.88;62.63
59487;BME280;45298;54.918;73.504;2023-03-22T03:49:15;100628.66;;;-1.09;62.18
59487;BME280;45298;54.918;73.504;2023-03-22T03:51:46;100626.94;;;-1.11;62.56
59487;BME280;45298;54.918;73.504;2023-03-22T03:54:16;100615.63;;;-1.07;62.58
59487;BME280;45298;54.918;73.504;2023-03-22T03:56:45;100614.78;;;-1.09;62.70
59487;BME280;45298;54.918;73.504;2023-03-22T03:59:18;100620.81;;;-1.02;61.62
59487;BME280;45298;54.918;73.504;2023-03-22T04:01:50;100638.09;;;-0.83;61.68
59487;BME280;45298;54.918;73.504;2023-03-22T04:04:26;100653.59;;;-0.61;61.69
59487;BME280;45298;54.918;73.504;2023-03-22T04:07:04;100649.19;;;-0.54;61.50
59487;BME280;45298;54.918;73.504;2023-03-22T04:09:37;100668.06;;;-0.21;61.33
59487;BME280;45298;54.918;73.504;2023-03-22T04:12:15;100661.88;;;-0.06;60.67
59487;BME280;45298;54.918;73.504;2023-03-22T04:14:59;100641.81;;;0.04;60.41
59487;BME280;45298;54.918;73.504;2023-03-22T04:17:29;100643.34;;;0.26;60.04
59487;BME280;45298;54.918;73.504;2023-03-22T04:19:59;100645.66;;;0.54;59.59
59487;BME280;45298;54.918;73.504;2023-03-22T04:22:34;100644.72;;;0.58;59.14
59487;BME280;45298;54.918;73.504;2023-03-22T04:25:08;100581.69;;;0.18;59.58
59487;BME280;45298;54.918;73.504;2023-03-22T04:27:48;100644.00;;;0.45;59.29
59487;BME280;45298;54.918;73.504;2023-03-22T04:30:19;100635.38;;;0.39;59.02
59487;BME280;45298;54.918;73.504;2023-03-22T04:33:19;100616.34;;;0.29;59.21
59487;BME280;45298;54.918;73.504;2023-03-22T04:36:22;100643.81;;;0.61;58.65
59487;BME280;45298;54.918;73.504;2023-03-22T04:39:11;100632.41;;;0.70;58.41
59487;BME280;45298;54.918;73.504;2023-03-22T04:41:44;100653.75;;;1.06;59.17
59487;BME280;45298;54.918;73.504;2023-03-22T04:44:13;100652.47;;;1.35;58.10
59487;BME280;45298;54.918;73.504;2023-03-22T04:46:47;100629.53;;;1.56;57.71
59487;BME280;45298;54.918;73.504;2023-03-22T04:49:17;100624.00;;;1.74;58.47
59487;BME280;45298;54.918;73.504;2023-03-22T04:51:46;100630.00;;;1.83;56.91
59487;BME280;45298;54.918;73.504;2023-03-22T04:54:25;100633.41;;;1.86;57.28
59487;BME280;45298;54.918;73.504;2023-03-22T04:56:54;100613.47;;;1.79;57.33
59487;BME280;45298;54.918;73.504;2023-03-22T04:59:25;100610.00;;;1.78;57.66
59487;BME280;45298;54.918;73.504;2023-03-22T05:01:54;100622.81;;;1.95;57.97
59487;BME280;45298;54.918;73.504;2023-03-22T05:04:26;100558.03;;;1.57;57.95
59487;BME280;45298;54.918;73.504;2023-03-22T05:07:02;100640.13;;;2.01;58.07
59487;BME280;45298;54.918;73.504;2023-03-22T05:09:41;100609.06;;;1.83;58.25
59487;BME280;45298;54.918;73.504;2023-03-22T05:12:10;100605.75;;;1.71;58.52
59487;BME280;45298;54.918;73.504;2023-03-22T05:14:51;100612.78;;;1.68;58.57
59487;BME280;45298;54.918;73.504;2023-03-22T05:17:24;100612.75;;;1.69;58.55
59487;BME280;45298;54.918;73.504;2023-03-22T05:19:55;100610.97;;;1.71;58.64
59487;BME280;45298;54.918;73.504;2023-03-22T05:22:24;100607.44;;;1.75;58.59
59487;BME280;45298;54.918;73.504;2023-03-22T05:24:54;100593.59;;;1.69;58.48
59487;BME280;45298;54.918;73.504;2023-03-22T05:27:28;100634.16;;;1.94;58.95
59487;BME280;45298;54.918;73.504;2023-03-22T05:30:18;100618.50;;;1.90;58.89
59487;BME280;45298;54.918;73.504;2023-03-22T05:33:02;100608.25;;;1.77;58.78
59487;BME280;45298;54.918;73.504;2023-03-22T05:35:39;100591.16;;;1.58;59.04
59487;BME280;45298;54.918;73.504;2023-03-22T05:38:09;100575.56;;;1.51;58.71
59487;BME280;45298;54.918;73.504;2023-03-22T05:40:43;100596.22;;;1.67;58.88
59487;BME280;45298;54.918;73.504;2023-03-22T05:43:14;100611.81;;;1.73;59.15
59487;BME280;45298;54.918;73.504;2023-03-22T05:45:47;100539.28;;;1.30;59.06
59487;BME280;45298;54.918;73.504;2023-03-22T05:48:42;100600.34;;;1.82;59.35
59487;BME280;45298;54.918;73.504;2023-03-22T05:51:14;100614.03;;;1.96;59.25
59487;BME280;45298;54.918;73.504;2023-03-22T05:53:50;100614.81;;;2.03;59.39
59487;BME280;45298;54.918;73.504;2023-03-22T05:56:24;100588.75;;;1.97;59.44
59487;BME280;45298;54.918;73.504;2023-03-22T05:59:02;100606.25;;;1.93;59.05
59487;BME280;45298;54.918;73.504;2023-03-22T06:01:32;100594.97;;;1.90;58.56
59487;BME280;45298;54.918;73.504;2023-03-22T06:04:22;100568.09;;;1.81;58.92
59487;BME280;45298;54.918;73.504;2023-03-22T06:06:57;100581.19;;;1.81;59.07
59487;BME280;45298;54.918;73.504;2023-03-22T06:09:49;100593.19;;;1.92;59.13
59487;BME280;45298;54.918;73.504;2023-03-22T06:12:21;100599.31;;;1.91;59.27
59487;BME280;45298;54.918;73.504;2023-03-22T06:14:59;100586.41;;;1.81;59.00
59487;BME280;45298;54.918;73.504;2023-03-22T06:17:35;100574.19;;;1.82;59.41
59487;BME280;45298;54.918;73.504;2023-03-22T06:20:07;100564.66;;;1.79;59.62
59487;BME280;45298;54.918;73.504;2023-03-22T06:22:44;100579.09;;;2.01;59.54
59487;BME280;45298;54.918;73.504;2023-03-22T06:25:13;100576.16;;;2.18;59.68
59487;BME280;45298;54.918;73.504;2023-03-22T06:27:45;100594.88;;;2.43;59.27
59487;BME280;45298;54.918;73.504;2023-03-22T06:30:13;100583.72;;;2.35;59.19
59487;BME280;45298;54.918;73.504;2023-03-22T06:33:15;100565.75;;;2.15;60.06
59487;BME280;45298;54.918;73.504;2023-03-22T06:35:48;100585.34;;;2.40;59.23
59487;BME280;45298;54.918;73.504;2023-03-22T06:38:26;100511.94;;;2.01;58.83
59487;BME280;45298;54.918;73.504;2023-03-22T06:40:55;100584.19;;;2.54;59.57
59487;BME280;45298;54.918;73.504;2023-03-22T06:43:24;100554.59;;;2.49;59.46
59487;BME280;45298;54.918;73.504;2023-03-22T06:46:00;100562.97;;;2.66;59.13
59487;BME280;45298;54.918;73.504;2023-03-22T06:48:35;100581.06;;;2.79;58.60
59487;BME280;45298;54.918;73.504;2023-03-22T06:51:07;100561.13;;;2.71;59.16
59487;BME280;45298;54.918;73.504;2023-03-22T06:53:37;100554.91;;;2.77;59.15
59487;BME280;45298;54.918;73.504;2023-03-22T06:56:06;100596.94;;;3.12;59.01
59487;BME280;45298;54.918;73.504;2023-03-22T06:58:45;100577.81;;;3.08;58.21
59487;BME280;45298;54.918;73.504;2023-03-22T07:01:15;100562.22;;;3.04;58.44
59487;BME280;45298;54.918;73.504;2023-03-22T07:03:44;100558.09;;;2.92;57.67
59487;BME280;45298;54.918;73.504;2023-03-22T07:06:15;100570.88;;;3.06;57.37
59487;BME280;45298;54.918;73.504;2023-03-22T07:08:47;100537.16;;;2.90;57.21
59487;BME280;45298;54.918;73.504;2023-03-22T07:11:24;100576.09;;;3.07;56.15
59487;BME280;45298;54.918;73.504;2023-03-22T07:13:59;100578.00;;;3.00;56.04
59487;BME280;45298;54.918;73.504;2023-03-22T07:16:47;100556.75;;;3.13;56.46
59487;BME280;45298;54.918;73.504;2023-03-22T07:19:17;100547.13;;;3.13;55.74
59487;BME280;45298;54.918;73.504;2023-03-22T07:21:46;100530.56;;;3.11;56.32
59487;BME280;45298;54.918;73.504;2023-03-22T07:24:16;100569.09;;;3.45;56.01
59487;BME280;45298;54.918;73.504;2023-03-22T07:26:45;100571.53;;;3.53;56.24
59487;BME280;45298;54.918;73.504;2023-03-22T07:29:18;100557.59;;;3.51;55.63
59487;BME280;45298;54.918;73.504;2023-03-22T07:31:47;100544.59;;;3.46;55.43
59487;BME280;45298;54.918;73.504;2023-03-22T07:34:31;100575.19;;;3.46;55.27
59487;BME280;45298;54.918;73.504;2023-03-22T07:37:03;100570.94;;;3.42;55.66
59487;BME280;45298;54.918;73.504;2023-03-22T07:39:32;100544.72;;;3.40;55.40
59487;BME280;45298;54.918;73.504;2023-03-22T07:42:02;100557.72;;;3.45;55.14
59487;BME280;45298;54.918;73.504;2023-03-22T07:44:50;100536.41;;;3.23;55.57
59487;BME280;45298;54.918;73.504;2023-03-22T07:47:19;100547.78;;;3.23;56.05
59487;BME280;45298;54.918;73.504;2023-03-22T07:50:26;100562.06;;;3.46;55.65
59487;BME280;45298;54.918;73.504;2023-03-22T07:52:58;100499.53;;;3.65;54.45
59487;BME280;45298;54.918;73.504;2023-03-22T07:55:27;100551.13;;;3.99;53.96
59487;BME280;45298;54.918;73.504;2023-03-22T07:57:55;100562.38;;;3.70;55.30
59487;BME280;45298;54.918;73.504;2023-03-22T08:00:24;100557.59;;;3.51;55.60
59487;BME280;45298;54.918;73.504;2023-03-22T08:03:13;100554.56;;;3.32;55.73
59487;BME280;45298;54.918;73.504;2023-03-22T08:05:54;100558.47;;;3.50;55.58
59487;BME280;45298;54.918;73.504;2023-03-22T08:08:26;100538.41;;;3.49;55.15
59487;BME280;45298;54.918;73.504;2023-03-22T08:10:55;100485.44;;;3.35;55.27
59487;BME280;45298;54.918;73.504;2023-03-22T08:13:24;100529.16;;;3.69;54.40
59487;BME280;45298;54.918;73.504;2023-03-22T08:15:53;100546.56;;;3.73;54.49
59487;BME280;45298;54.918;73.504;2023-03-22T08:18:23;100543.88;;;3.76;54.78
59487;BME280;45298;54.918;73.504;2023-03-22T08:20:56;100542.28;;;3.69;54.35
59487;BME280;45298;54.918;73.504;2023-03-22T08:23:28;100505.00;;;3.57;54.88
59487;BME280;45298;54.918;73.504;2023-03-22T08:26:28;100524.66;;;3.74;54.76
59487;BME280;45298;54.918;73.504;2023-03-22T08:29:07;100523.44;;;3.87;54.44
59487;BME280;45298;54.918;73.504;2023-03-22T08:31:37;100533.50;;;4.03;54.04
59487;BME280;45298;54.918;73.504;2023-03-22T08:34:05;100507.88;;;3.81;53.89
59487;BME280;45298;54.918;73.504;2023-03-22T08:36:34;100537.22;;;3.96;53.68
59487;BME280;45298;54.918;73.504;2023-03-22T08:39:04;100516.22;;;3.96;52.88
59487;BME280;45298;54.918;73.504;2023-03-22T08:41:44;100524.59;;;4.10;53.06
59487;BME280;45298;54.918;73.504;2023-03-22T08:44:13;100491.94;;;3.87;51.93
59487;BME280;45298;54.918;73.504;2023-03-22T08:46:42;100505.44;;;4.06;52.12
59487;BME280;45298;54.918;73.504;2023-03-22T08:49:11;100502.84;;;4.05;51.40
59487;BME280;45298;54.918;73.504;2023-03-22T08:51:47;100526.84;;;4.24;51.33
59487;BME280;45298;54.918;73.504;2023-03-22T08:54:23;100446.50;;;3.85;51.71
59487;BME280;45298;54.918;73.504;2023-03-22T08:57:18;100496.38;;;4.18;52.34
59487;BME280;45298;54.918;73.504;2023-03-22T09:00:08;100510.59;;;4.41;52.80
59487;BME280;45298;54.918;73.504;2023-03-22T09:02:47;100513.41;;;4.35;53.71
59487;BME280;45298;54.918;73.504;2023-03-22T09:05:17;100498.19;;;4.15;54.28
59487;BME280;45298;54.918;73.504;2023-03-22T09:07:51;100503.50;;;4.13;55.18
59487;BME280;45298;54.918;73.504;2023-03-22T09:10:37;100508.63;;;4.18;54.62
59487;BME280;45298;54.918;73.504;2023-03-22T09:13:09;100500.31;;;4.02;55.09
59487;BME280;45298;54.918;73.504;2023-03-22T09:15:47;100509.66;;;4.12;55.66
59487;BME280;45298;54.918;73.504;2023-03-22T09:18:24;100501.41;;;4.24;55.60
59487;BME280;45298;54.918;73.504;2023-03-22T09:20:57;100522.91;;;4.39;55.86
59487;BME280;45298;54.918;73.504;2023-03-22T09:23:31;100521.44;;;4.29;55.42
59487;BME280;45298;54.918;73.504;2023-03-22T09:26:05;100501.63;;;4.18;55.83
59487;BME280;45298;54.918;73.504;2023-03-22T09:28:35;100450.38;;;3.72;55.59
59487;BME280;45298;54.918;73.504;2023-03-22T09:31:08;100488.41;;;3.88;55.96
59487;BME280;45298;54.918;73.504;2023-03-22T09:33:39;100481.53;;;3.84;56.20
59487;BME280;45298;54.918;73.504;2023-03-22T09:36:09;100508.56;;;3.88;56.83
59487;BME280;45298;54.918;73.504;2023-03-22T09:38:40;100493.94;;;3.79;55.97
59487;BME280;45298;54.918;73.504;2023-03-22T09:41:20;100492.16;;;3.80;56.75
59487;BME280;45298;54.918;73.504;2023-03-22T09:43:54;100490.34;;;3.82;56.34
59487;BME280;45298;54.918;73.504;2023-03-22T09:46:32;100521.00;;;3.80;57.38
59487;BME280;45298;54.918;73.504;2023-03-22T09:49:06;100503.47;;;3.47;57.33
59487;BME280;45298;54.918;73.504;2023-03-22T09:51:47;100524.78;;;3.35;57.26
59487;BME280;45298;54.918;73.504;2023-03-22T09:59:59;100519.59;;;3.31;57.53
59487;BME280;45298;54.918;73.504;2023-03-22T10:02:40;100507.94;;;3.43;57.19
59487;BME280;45298;54.918;73.504;2023-03-22T10:05:36;100426.81;;;3.02;57.39
59487;BME280;45298;54.918;73.504;2023-03-22T10:08:25;100438.09;;;3.06;57.28
59487;BME280;45298;54.918;73.504;2023-03-22T10:10:58;100445.63;;;3.18;57.31
59487;BME280;45298;54.918;73.504;2023-03-22T10:13:50;100495.75;;;3.42;57.16
59487;BME280;45298;54.918;73.504;2023-03-22T10:16:27;100461.56;;;3.11;57.68
59487;BME280;45298;54.918;73.504;2023-03-22T10:19:11;100453.94;;;3.00;58.02
59487;BME280;45298;54.918;73.504;2023-03-22T10:21:45;100470.44;;;3.05;58.44
59487;BME280;45298;54.918;73.504;2023-03-22T10:24:21;100457.59;;;2.94;58.78
59487;BME280;45298;54.918;73.504;2023-03-22T10:26:52;100429.97;;;2.79;59.19
59487;BME280;45298;54.918;73.504;2023-03-22T10:29:32;100479.13;;;3.07;59.54
59487;BME280;45298;54.918;73.504;2023-03-22T10:32:39;100468.91;;;2.95;59.84
59487;BME280;45298;54.918;73.504;2023-03-22T10:35:23;100439.88;;;2.68;59.75
59487;BME280;45298;54.918;73.504;2023-03-22T10:37:56;100403.16;;;2.30;60.22
59487;BME280;45298;54.918;73.504;2023-03-22T10:40:28;100444.69;;;2.46;60.63
59487;BME280;45298;54.918;73.504;2023-03-22T10:43:36;100472.44;;;2.56;61.46
59487;BME280;45298;54.918;73.504;2023-03-22T10:46:13;100475.09;;;2.54;60.73
59487;BME280;45298;54.918;73.504;2023-03-22T10:48:46;100470.59;;;2.60;60.97
59487;BME280;45298;54.918;73.504;2023-03-22T10:51:25;100460.34;;;2.49;61.46
59487;BME280;45298;54.918;73.504;2023-03-22T10:53:55;100392.97;;;2.18;61.57
59487;BME280;45298;54.918;73.504;2023-03-22T10:56:25;100457.56;;;2.56;61.75
59487;BME280;45298;54.918;73.504;2023-03-22T10:58:55;100481.84;;;2.65;61.47
59487;BME280;45298;54.918;73.504;2023-03-22T11:01:34;100464.63;;;2.54;61.83
59487;BME280;45298;54.918;73.504;2023-03-22T11:04:14;100477.53;;;2.62;62.17
59487;BME280;45298;54.918;73.504;2023-03-22T11:06:51;100475.88;;;2.58;62.34
59487;BME280;45298;54.918;73.504;2023-03-22T11:09:23;100410.34;;;2.22;62.24
59487;BME280;45298;54.918;73.504;2023-03-22T11:11:58;100397.81;;;1.95;62.70
59487;BME280;45298;54.918;73.504;2023-03-22T11:14:34;100448.19;;;2.05;63.31
59487;BME280;45298;54.918;73.504;2023-03-22T11:19:38;100449.09;;;2.03;63.69
59487;BME280;45298;54.918;73.504;2023-03-22T11:22:24;100481.31;;;2.05;64.20
59487;BME280;45298;54.918;73.504;2023-03-22T11:24:54;100446.75;;;1.90;64.00
59487;BME280;45298;54.918;73.504;2023-03-22T11:27:27;100457.06;;;1.96;63.63
59487;BME280;45298;54.918;73.504;2023-03-22T11:30:16;100470.91;;;2.03;64.47
59487;BME280;45298;54.918;73.504;2023-03-22T11:33:16;100466.53;;;2.04;64.36
59487;BME280;45298;54.918;73.504;2023-03-22T11:35:54;100382.97;;;1.50;64.11
59487;BME280;45298;54.918;73.504;2023-03-22T11:38:36;100446.97;;;1.78;64.40
59487;BME280;45298;54.918;73.504;2023-03-22T11:41:21;100454.84;;;1.76;65.31
59487;BME280;45298;54.918;73.504;2023-03-22T11:43:54;100460.81;;;1.85;64.75
59487;BME280;45298;54.918;73.504;2023-03-22T11:46:24;100452.13;;;1.83;64.79
59487;BME280;45298;54.918;73.504;2023-03-22T11:48:57;100452.19;;;1.78;65.52
59487;BME280;45298;54.918;73.504;2023-03-22T11:51:33;100437.75;;;1.58;65.33
59487;BME280;45298;54.918;73.504;2023-03-22T11:56:54;100443.09;;;1.52;65.72
59487;BME280;45298;54.918;73.504;2023-03-22T11:59:35;100432.88;;;1.38;66.32
59487;BME280;45298;54.918;73.504;2023-03-22T12:02:22;100443.34;;;1.38;66.68
59487;BME280;45298;54.918;73.504;2023-03-22T12:05:11;100423.59;;;1.20;67.06
59487;BME280;45298;54.918;73.504;2023-03-22T12:07:44;100435.81;;;1.19;67.13
59487;BME280;45298;54.918;73.504;2023-03-22T12:10:47;100452.28;;;1.25;67.98
59487;BME280;45298;54.918;73.504;2023-03-22T12:13:24;100434.88;;;1.24;67.62
59487;BME280;45298;54.918;73.504;2023-03-22T12:16:00;100418.63;;;1.06;67.92
59487;BME280;45298;54.918;73.504;2023-03-22T12:18:43;100421.31;;;1.01;68.40
59487;BME280;45298;54.918;73.504;2023-03-22T12:21:15;100421.28;;;1.03;68.26
59487;BME280;45298;54.918;73.504;2023-03-22T12:23:44;100432.69;;;0.99;68.29
59487;BME280;45298;54.918;73.504;2023-03-22T12:26:24;100369.81;;;0.56;68.98
59487;BME280;45298;54.918;73.504;2023-03-22T12:29:15;100440.59;;;0.93;68.93
59487;BME280;45298;54.918;73.504;2023-03-22T12:31:57;100421.75;;;0.73;69.55
59487;BME280;45298;54.918;73.504;2023-03-22T12:34:41;100424.41;;;0.69;69.91
59487;BME280;45298;54.918;73.504;2023-03-22T12:37:23;100434.88;;;0.69;69.66
59487;BME280;45298;54.918;73.504;2023-03-22T12:42:50;100410.09;;;0.37;70.22
59487;BME280;45298;54.918;73.504;2023-03-22T12:45:27;100423.16;;;0.37;70.55
59487;BME280;45298;54.918;73.504;2023-03-22T12:48:09;100417.22;;;0.25;70.85
59487;BME280;45298;54.918;73.504;2023-03-22T12:50:51;100425.91;;;0.26;71.65
59487;BME280;45298;54.918;73.504;2023-03-22T12:53:22;100420.78;;;0.18;71.16
59487;BME280;45298;54.918;73.504;2023-03-22T12:55:54;100410.44;;;0.13;71.13
59487;BME280;45298;54.918;73.504;2023-03-22T12:58:27;100426.16;;;0.07;71.68
59487;BME280;45298;54.918;73.504;2023-03-22T13:00:59;100381.31;;;-0.21;72.13
59487;BME280;45298;54.918;73.504;2023-03-22T13:03:47;100399.56;;;-0.20;71.92
59487;BME280;45298;54.918;73.504;2023-03-22T13:09:16;100420.47;;;-0.26;72.24
59487;BME280;45298;54.918;73.504;2023-03-22T13:25:24;100414.91;;;-0.79;74.44
59487;BME280;45298;54.918;73.504;2023-03-22T13:27:59;100389.94;;;-0.99;74.07
59487;BME280;45298;54.918;73.504;2023-03-22T13:30:46;100409.88;;;-0.98;74.51
59487;BME280;45298;54.918;73.504;2023-03-22T13:33:24;100410.75;;;-0.99;74.11
59487;BME280;45298;54.918;73.504;2023-03-22T13:35:58;100418.66;;;-1.08;74.42
59487;BME280;45298;54.918;73.504;2023-03-22T13:38:35;100391.06;;;-1.28;74.46
59487;BME280;45298;54.918;73.504;2023-03-22T13:41:20;100409.22;;;-1.23;74.93
59487;BME280;45298;54.918;73.504;2023-03-22T13:43:55;100412.69;;;-1.26;75.04
59487;BME280;45298;54.918;73.504;2023-03-22T13:46:26;100411.88;;;-1.29;74.94
59487;BME280;45298;54.918;73.504;2023-03-22T13:51:32;100311.88;;;-2.17;75.06
59487;BME280;45298;54.918;73.504;2023-03-22T13:54:08;100412.81;;;-1.40;75.18
59487;BME280;45298;54.918;73.504;2023-03-22T13:59:27;100412.88;;;-1.52;75.83
59487;BME280;45298;54.918;73.504;2023-03-22T14:02:16;100412.91;;;-1.57;76.45
59487;BME280;45298;54.918;73.504;2023-03-22T14:04:56;100392.22;;;-1.75;75.97
59487;BME280;45298;54.918;73.504;2023-03-22T14:07:31;100406.88;;;-1.62;75.78
59487;BME280;45298;54.918;73.504;2023-03-22T14:10:13;100413.81;;;-1.64;75.51
59487;BME280;45298;54.918;73.504;2023-03-22T14:13:48;100410.41;;;-1.69;75.62
59487;BME280;45298;54.918;73.504;2023-03-22T14:15:49;100353.44;;;-2.13;76.11
59487;BME280;45298;54.918;73.504;2023-03-22T14:20:59;100411.31;;;-1.81;77.16
59487;BME280;45298;54.918;73.504;2023-03-22T14:23:53;100391.47;;;-1.98;76.22
59487;BME280;45298;54.918;73.504;2023-03-22T14:26:25;100406.19;;;-1.95;76.63
59487;BME280;45298;54.918;73.504;2023-03-22T14:29:25;100333.63;;;-2.43;76.61
59487;BME280;45298;54.918;73.504;2023-03-22T14:31:59;100368.19;;;-2.22;76.66
59487;BME280;45298;54.918;73.504;2023-03-22T14:34:33;100369.91;;;-2.20;76.67
59487;BME280;45298;54.918;73.504;2023-03-22T14:37:04;100388.94;;;-2.15;76.75
59487;BME280;45298;54.918;73.504;2023-03-22T14:39:39;100378.59;;;-2.22;76.72
59487;BME280;45298;54.918;73.504;2023-03-22T14:42:29;100397.59;;;-2.13;77.22
59487;BME280;45298;54.918;73.504;2023-03-22T14:45:02;100389.84;;;-2.22;77.47
59487;BME280;45298;54.918;73.504;2023-03-22T14:47:40;100405.41;;;-2.16;77.34
59487;BME280;45298;54.918;73.504;2023-03-22T14:50:15;100358.72;;;-2.40;77.04